Walnut Grove, Texas
Current Conditions -  °F | °C
As of 6:55 AM on Wednesday 26 Nov 2014 (Local Time) from KJSO Reporting Station
Clear Clear  
Wind Chill: 39°   Ceiling: Unl
Heat Index: 44°   Visibility: 10mi
Dew Point: 33°   Wind: 9mph
Humidity: 66%   Direction: 190°S
Pressure: 30.13"   Gusts: NA
Location:  32.0774°N, 95.1103°W
Report Text: KJSO 261255Z AUTO 19008KT 10SM CLR 06/00 A3013 RMK AO2 T00650005
Loading
Personal Weather Stations






























Interactive Weather Map New forecast layout! Learn more

10-Day Weather Forecast

Advertisements
Track Severe Weather on mobile